Time;durP1;ratioP1;P1;durP2;ratioP2;P2;SDS_P1;SDS_P2;PMS_P1;PMS_P2;Temp;Humidity;BMP_temperature;BMP_pressure;BME280_temperature;BME280_humidity;BME280_pressure;Samples;Min_cycle;Max_cycle;Signal;HPM_P1;HPM_P2
2021/05/12 00:00:13;;;;;;;1999.90;999.90;;;10.20;99.90;;;;;;5080738;28;20270;-82
2021/05/12 00:02:39;;;;;;;1999.90;999.90;;;10.20;99.90;;;;;;5098393;28;20193;-82
2021/05/12 00:05:07;;;;;;;1999.90;999.90;;;10.20;99.90;;;;;;5098690;28;20200;-81
2021/05/12 00:07:33;;;;;;;1999.90;999.90;;;10.10;99.90;;;;;;5098277;28;20184;-81
2021/05/12 00:09:59;;;;;;;1999.90;999.90;;;10.20;99.90;;;;;;5080359;28;20542;-82
2021/05/12 00:12:24;;;;;;;1999.90;999.90;;;10.10;99.90;;;;;;5079931;28;20258;-81
2021/05/12 00:14:50;;;;;;;1999.90;999.90;;;10.10;99.90;;;;;;5098043;28;20278;-82
2021/05/12 00:17:19;;;;;;;1999.90;999.90;;;10.10;99.90;;;;;;5098267;28;20195;-82
2021/05/12 00:19:52;;;;;;;1999.90;999.90;;;10.10;99.90;;;;;;5092005;28;20168;-82
2021/05/12 00:22:46;;;;;;;1999.90;999.90;;;10.10;99.90;;;;;;5098396;28;20179;-82
2021/05/12 00:25:07;;;;;;;1999.90;999.90;;;10.10;99.90;;;;;;5083285;28;20670;-81
2021/05/12 00:27:33;;;;;;;1999.90;999.90;;;10.10;99.90;;;;;;5097767;28;20210;-81
2021/05/12 00:29:59;;;;;;;1999.90;999.90;;;10.10;99.90;;;;;;5097343;28;20175;-81
2021/05/12 00:32:25;;;;;;;1999.90;999.90;;;10.10;99.90;;;;;;5097384;28;20178;-81
2021/05/12 00:34:50;;;;;;;1999.90;999.90;;;10.10;99.90;;;;;;5078248;28;20689;-82
2021/05/12 00:37:16;;;;;;;1999.90;999.90;;;10.10;99.90;;;;;;5097781;28;20237;-81
2021/05/12 00:39:42;;;;;;;1999.90;999.90;;;10.10;99.90;;;;;;5097355;28;20179;-81
2021/05/12 00:42:08;;;;;;;1999.90;999.90;;;10.10;99.90;;;;;;5078748;28;20599;-81
2021/05/12 00:44:34;;;;;;;1999.90;999.90;;;10.10;99.90;;;;;;5075760;28;20222;-82
2021/05/12 00:47:04;;;;;;;1999.90;999.90;;;10.10;99.90;;;;;;5079042;28;20168;-82
2021/05/12 00:49:30;;;;;;;1999.90;999.90;;;10.10;99.90;;;;;;5079116;28;20263;-82
2021/05/12 00:51:56;;;;;;;1999.90;999.90;;;10.10;99.90;;;;;;5097232;28;20173;-82
2021/05/12 00:54:22;;;;;;;1999.90;999.90;;;10.00;99.90;;;;;;5097017;28;20645;-82
2021/05/12 00:56:48;;;;;;;1999.90;999.90;;;10.10;99.90;;;;;;5078836;28;20228;-82
2021/05/12 00:59:13;;;;;;;1999.90;999.90;;;10.00;99.90;;;;;;5079018;28;20253;-82
2021/05/12 01:01:39;;;;;;;1999.90;999.90;;;10.00;99.90;;;;;;5078509;28;20179;-82
2021/05/12 01:04:07;;;;;;;1999.90;999.90;;;10.00;99.90;;;;;;5078928;28;20244;-82
2021/05/12 01:06:38;;;;;;;1999.90;999.90;;;10.00;99.90;;;;;;5078685;28;20196;-81
2021/05/12 01:09:08;;;;;;;1999.90;999.90;;;10.00;99.90;;;;;;5097016;28;20255;-81
2021/05/12 01:11:35;;;;;;;1999.90;999.90;;;10.00;99.90;;;;;;5078469;28;20171;-82
2021/05/12 01:14:02;;;;;;;1999.90;999.90;;;10.10;99.90;;;;;;5078464;28;20329;-82
2021/05/12 01:16:28;;;;;;;1999.90;999.90;;;10.00;99.90;;;;;;5077940;28;20179;-82
2021/05/12 01:18:54;;;;;;;1999.90;999.90;;;10.00;99.90;;;;;;5078415;28;20331;-81
2021/05/12 01:21:20;;;;;;;1999.90;999.90;;;10.00;99.90;;;;;;5096534;28;20172;-81
2021/05/12 01:23:48;;;;;;;1999.90;999.90;;;9.90;99.90;;;;;;5078181;28;20179;-82
2021/05/12 01:26:18;;;;;;;1999.90;999.90;;;9.90;99.90;;;;;;5078418;28;20183;-82
2021/05/12 01:28:46;;;;;;;1999.90;999.90;;;9.90;99.90;;;;;;5096757;28;20185;-82
2021/05/12 01:31:16;;;;;;;1999.90;999.90;;;9.90;99.90;;;;;;5096344;28;20184;-82
2021/05/12 01:33:42;;;;;;;1999.90;999.90;;;9.90;99.90;;;;;;5096052;28;20180;-82
2021/05/12 01:36:10;;;;;;;1999.90;999.90;;;9.90;99.90;;;;;;5077894;28;20182;-82
2021/05/12 01:38:37;;;;;;;1999.90;999.90;;;9.90;99.90;;;;;;5096063;28;20199;-81
2021/05/12 01:41:04;;;;;;;1999.90;999.90;;;9.90;99.90;;;;;;5078112;28;20202;-82
2021/05/12 01:43:32;;;;;;;1999.90;999.90;;;9.90;99.90;;;;;;5077622;28;20183;-84
2021/05/12 01:45:58;;;;;;;1999.90;999.90;;;9.90;99.90;;;;;;5095905;28;20221;-82
2021/05/12 01:48:25;;;;;;;1999.90;999.90;;;9.90;99.90;;;;;;5077882;28;20206;-82
2021/05/12 01:50:51;;;;;;;1999.90;999.90;;;9.90;99.90;;;;;;5095602;28;20179;-83
2021/05/12 01:53:17;;;;;;;1999.90;999.90;;;9.90;99.90;;;;;;5077383;28;20190;-82
2021/05/12 01:55:43;;;;;;;1999.90;999.90;;;9.80;99.90;;;;;;5077423;28;20595;-83
2021/05/12 01:58:09;;;;;;;1999.90;999.90;;;9.80;99.90;;;;;;5088789;28;20206;-82
2021/05/12 02:00:39;;;;;;;1999.90;999.90;;;9.70;99.90;;;;;;5093573;28;20172;-82
2021/05/12 02:03:07;;;;;;;1999.90;999.90;;;9.80;99.90;;;;;;5093730;28;20179;-82
2021/05/12 02:05:34;;;;;;;1999.90;999.90;;;9.70;99.90;;;;;;5093766;28;20572;-82
2021/05/12 02:08:02;;;;;;;1999.90;999.90;;;9.70;99.90;;;;;;5095495;28;20200;-83
2021/05/12 02:10:27;;;;;;;1999.90;999.90;;;9.60;99.90;;;;;;5095106;28;20547;-84
2021/05/12 02:12:54;;;;;;;1999.90;999.90;;;9.60;99.90;;;;;;5076032;28;20179;-83
2021/05/12 02:15:21;;;;;;;1999.90;999.90;;;9.50;99.90;;;;;;5095627;28;20252;-84
2021/05/12 02:17:47;;;;;;;1999.90;999.90;;;9.50;99.90;;;;;;5095516;28;20201;-82
2021/05/12 02:20:15;;;;;;;1999.90;999.90;;;9.50;99.90;;;;;;5095423;28;20178;-84
2021/05/12 02:22:41;;;;;;;1999.90;999.90;;;9.50;99.90;;;;;;5095259;28;20551;-84
2021/05/12 02:25:08;;;;;;;1999.90;999.90;;;9.60;99.90;;;;;;5071307;28;20205;-84
2021/05/12 02:27:34;;;;;;;1999.90;999.90;;;9.50;99.90;;;;;;5095362;28;20266;-84
2021/05/12 02:30:02;;;;;;;1999.90;999.90;;;9.50;99.90;;;;;;5095397;28;20217;-83
2021/05/12 02:32:29;;;;;;;1999.90;999.90;;;9.40;99.90;;;;;;5095021;28;20201;-84
2021/05/12 02:34:55;;;;;;;1999.90;999.90;;;9.40;99.90;;;;;;5076730;28;20202;-83
2021/05/12 02:37:22;;;;;;;1999.90;999.90;;;9.30;99.90;;;;;;5094983;28;20203;-84
2021/05/12 02:39:47;;;;;;;1999.90;999.90;;;9.30;99.90;;;;;;5076586;28;20200;-83
2021/05/12 02:42:13;;;;;;;1999.90;999.90;;;9.30;99.90;;;;;;5094742;28;20234;-84
2021/05/12 02:44:39;;;;;;;1999.90;999.90;;;9.30;99.90;;;;;;5076256;28;20236;-83
2021/05/12 02:47:04;;;;;;;1999.90;999.90;;;9.30;99.90;;;;;;5083140;28;20547;-83
2021/05/12 02:49:30;;;;;;;1999.90;999.90;;;9.20;99.90;;;;;;5094779;28;20239;-83
2021/05/12 02:51:56;;;;;;;1999.90;999.90;;;9.20;99.90;;;;;;5094932;28;20181;-83
2021/05/12 02:54:21;;;;;;;1999.90;999.90;;;9.20;99.90;;;;;;5094269;28;20222;-84
2021/05/12 02:56:47;;;;;;;1999.90;999.90;;;9.20;99.90;;;;;;5094285;28;20567;-84
2021/05/12 02:59:13;;;;;;;1999.90;999.90;;;9.20;99.90;;;;;;5076599;28;20178;-83
2021/05/12 03:01:38;;;;;;;1999.90;999.90;;;9.10;99.90;;;;;;5093221;28;20218;-83
2021/05/12 03:04:04;;;;;;;1999.90;999.90;;;9.10;99.90;;;;;;5074959;28;20196;-83
2021/05/12 03:06:30;;;;;;;1999.90;999.90;;;9.10;99.90;;;;;;5092117;28;20201;-83
2021/05/12 03:08:55;;;;;;;1999.90;999.90;;;9.10;99.90;;;;;;5091724;28;20176;-84
2021/05/12 03:11:22;;;;;;;1999.90;999.90;;;9.10;99.90;;;;;;5073112;28;20205;-83
2021/05/12 03:13:47;;;;;;;1999.90;999.90;;;9.20;99.90;;;;;;5073460;28;20267;-82
2021/05/12 03:16:13;;;;;;;1999.90;999.90;;;9.10;99.90;;;;;;5091993;28;20601;-83
2021/05/12 03:18:39;;;;;;;1999.90;999.90;;;9.20;99.90;;;;;;5091543;28;20198;-83
2021/05/12 03:21:05;;;;;;;1999.90;999.90;;;9.20;99.90;;;;;;5073480;28;20598;-84
2021/05/12 03:23:30;;;;;;;1999.90;999.90;;;9.20;99.90;;;;;;5072803;28;20614;-84
2021/05/12 03:25:56;;;;;;;1999.90;999.90;;;9.20;99.90;;;;;;5091518;28;20201;-83
2021/05/12 03:28:22;;;;;;;1999.90;999.90;;;9.00;99.90;;;;;;5073468;28;20721;-84
2021/05/12 03:30:48;;;;;;;1999.90;999.90;;;9.00;99.90;;;;;;5091682;28;20185;-84
2021/05/12 03:33:13;;;;;;;1999.90;999.90;;;9.00;99.90;;;;;;5073404;28;20179;-83
2021/05/12 03:35:40;;;;;;;1999.90;999.90;;;9.00;99.90;;;;;;5073374;28;20279;-83
2021/05/12 03:38:07;;;;;;;1999.90;999.90;;;9.10;99.90;;;;;;5088878;28;20196;-83
2021/05/12 03:40:33;;;;;;;1999.90;999.90;;;9.10;99.90;;;;;;5091503;28;20178;-83
2021/05/12 03:43:00;;;;;;;1999.90;999.90;;;9.30;99.90;;;;;;5073156;28;20167;-83
2021/05/12 03:45:28;;;;;;;1999.90;999.90;;;9.10;99.90;;;;;;5092385;28;20221;-84
2021/05/12 03:47:54;;;;;;;1999.90;999.90;;;9.10;99.90;;;;;;5094925;28;20190;-85
2021/05/12 03:50:21;;;;;;;1999.90;999.90;;;9.10;99.90;;;;;;5093294;28;20657;-85
2021/05/12 03:52:47;;;;;;;1999.90;999.90;;;9.10;99.90;;;;;;5093310;28;20209;-85
2021/05/12 03:55:14;;;;;;;1999.90;999.90;;;9.10;99.90;;;;;;5074263;28;20213;-85
2021/05/12 03:57:40;;;;;;;1999.90;999.90;;;9.00;99.90;;;;;;5074869;28;20696;-84
2021/05/12 04:00:07;;;;;;;1999.90;999.90;;;8.90;99.90;;;;;;5096172;22;20230;-82
2021/05/12 04:02:33;;;;;;;1999.90;999.90;;;8.90;99.90;;;;;;5061184;28;20667;-81
2021/05/12 04:04:58;;;;;;;1999.90;999.90;;;8.90;99.90;;;;;;5053507;28;20235;-82
2021/05/12 04:07:24;;;;;;;1999.90;999.90;;;8.90;99.90;;;;;;5059255;28;20667;-82
2021/05/12 04:09:49;;;;;;;1999.90;999.90;;;8.90;99.90;;;;;;5066672;28;20198;-82
2021/05/12 04:12:15;;;;;;;1999.90;999.90;;;8.90;99.90;;;;;;5065734;28;20184;-83
2021/05/12 04:14:41;;;;;;;1999.90;999.90;;;8.90;99.90;;;;;;5065201;28;20170;-82
2021/05/12 04:17:06;;;;;;;1999.90;999.90;;;8.80;99.90;;;;;;5065776;28;20198;-81
2021/05/12 04:19:32;;;;;;;1999.90;999.90;;;8.90;99.90;;;;;;5034794;28;20203;-82
2021/05/12 04:21:58;;;;;;;1999.90;999.90;;;8.80;99.90;;;;;;5049355;28;20264;-82
2021/05/12 04:24:24;;;;;;;1999.90;999.90;;;8.80;99.90;;;;;;5048667;28;20164;-82
2021/05/12 04:26:51;;;;;;;1999.90;999.90;;;8.80;99.90;;;;;;5047984;28;20184;-82
2021/05/12 04:29:17;;;;;;;1999.90;999.90;;;8.70;99.90;;;;;;5029079;28;20200;-82
2021/05/12 04:31:43;;;;;;;1999.90;999.90;;;8.90;99.90;;;;;;5063501;28;20289;-82
2021/05/12 04:34:09;;;;;;;1999.90;999.90;;;8.90;99.90;;;;;;5064828;28;20182;-81
2021/05/12 04:36:34;;;;;;;1999.90;999.90;;;8.90;99.90;;;;;;5063138;28;20183;-82
2021/05/12 04:39:01;;;;;;;1999.90;999.90;;;8.90;99.90;;;;;;5040922;28;20248;-82
2021/05/12 04:41:27;;;;;;;1999.90;999.90;;;8.80;99.90;;;;;;5059882;28;20626;-82
2021/05/12 04:43:54;;;;;;;1999.90;999.90;;;8.80;99.90;;;;;;5059896;28;20208;-81
2021/05/12 04:46:21;;;;;;;1999.90;999.90;;;8.70;99.90;;;;;;5048573;28;20167;-81
2021/05/12 04:48:47;;;;;;;1999.90;999.90;;;8.70;99.90;;;;;;5038974;28;20198;-80
2021/05/12 04:51:13;;;;;;;1999.90;999.90;;;8.80;99.90;;;;;;5058428;28;20184;-80
2021/05/12 04:53:38;;;;;;;1999.90;999.90;;;8.90;99.90;;;;;;5058069;28;20176;-80
2021/05/12 04:56:04;;;;;;;1999.90;999.90;;;8.90;99.90;;;;;;5057419;28;20184;-80
2021/05/12 04:58:31;;;;;;;1999.90;999.90;;;8.90;99.90;;;;;;5040502;28;20187;-80
2021/05/12 05:00:56;;;;;;;1999.90;999.90;;;8.90;99.90;;;;;;5058457;28;20202;-80
2021/05/12 05:03:22;;;;;;;1999.90;999.90;;;8.90;99.90;;;;;;5056840;28;20307;-80
2021/05/12 05:05:48;;;;;;;1999.90;999.90;;;8.90;99.90;;;;;;5057810;28;20175;-80
2021/05/12 05:08:14;;;;;;;1999.90;999.90;;;8.90;99.90;;;;;;5056436;28;20263;-80
2021/05/12 05:10:40;;;;;;;1999.90;999.90;;;9.00;99.90;;;;;;5057816;28;20191;-80
2021/05/12 05:13:06;;;;;;;1999.90;999.90;;;9.00;99.90;;;;;;5056342;28;20648;-81
2021/05/12 05:15:33;;;;;;;1999.90;999.90;;;8.90;99.90;;;;;;5056395;28;20198;-81
2021/05/12 05:17:59;;;;;;;1999.90;999.90;;;8.90;99.90;;;;;;5057396;28;20195;-80
2021/05/12 05:20:26;;;;;;;1999.90;999.90;;;9.00;99.90;;;;;;5056816;28;20197;-80
2021/05/12 05:22:52;;;;;;;1999.90;999.90;;;9.00;99.90;;;;;;5058039;28;20536;-80
2021/05/12 05:25:18;;;;;;;1999.90;999.90;;;9.00;99.90;;;;;;5057214;28;20176;-81
2021/05/12 05:27:43;;;;;;;1999.90;999.90;;;9.10;99.90;;;;;;5056175;28;20271;-81
2021/05/12 05:30:10;;;;;;;1999.90;999.90;;;9.00;99.90;;;;;;5057420;28;20222;-81
2021/05/12 05:32:35;;;;;;;1999.90;999.90;;;9.00;99.90;;;;;;5057025;28;20202;-81
2021/05/12 05:35:01;;;;;;;1999.90;999.90;;;8.90;99.90;;;;;;5055629;28;20647;-81
2021/05/12 05:37:27;;;;;;;1999.90;999.90;;;8.90;99.90;;;;;;5055827;28;20567;-81
2021/05/12 05:39:55;;;;;;;1999.90;999.90;;;8.90;99.90;;;;;;5056692;28;20246;-81
2021/05/12 05:42:21;;;;;;;1999.90;999.90;;;8.90;99.90;;;;;;5057094;28;20256;-80
2021/05/12 05:44:48;;;;;;;1999.90;999.90;;;8.90;99.90;;;;;;5057122;28;20207;-81
2021/05/12 05:47:13;;;;;;;1999.90;999.90;;;8.90;99.90;;;;;;5056770;28;20639;-81
2021/05/12 05:49:39;;;;;;;1999.90;999.90;;;8.90;99.90;;;;;;5057225;28;20255;-81
2021/05/12 05:52:05;;;;;;;1999.90;999.90;;;9.00;99.90;;;;;;5055703;28;20178;-81
2021/05/12 05:54:31;;;;;;;1999.90;999.90;;;9.00;99.90;;;;;;5050605;28;20199;-81
2021/05/12 05:57:03;;;;;;;1999.90;999.90;;;9.00;99.90;;;;;;5061199;28;20200;-81
2021/05/12 05:59:29;;;;;;;1999.90;999.90;;;9.10;99.90;;;;;;5060470;28;20684;-81
2021/05/12 06:01:56;;;;;;;1999.90;999.90;;;9.10;99.90;;;;;;5056135;28;20175;-81
2021/05/12 06:04:24;;;;;;;1999.90;999.90;;;9.00;99.90;;;;;;5062144;28;20198;-81
2021/05/12 06:06:50;;;;;;;1999.90;999.90;;;9.10;99.90;;;;;;5061813;28;20176;-81
2021/05/12 06:09:15;;;;;;;1999.90;999.90;;;9.10;99.90;;;;;;5061016;28;20207;-81
2021/05/12 06:11:41;;;;;;;1999.90;999.90;;;9.10;99.90;;;;;;5058628;28;20172;-80
2021/05/12 06:14:07;;;;;;;1999.90;999.90;;;9.10;99.90;;;;;;5057692;28;20235;-81
2021/05/12 06:16:32;;;;;;;1999.90;999.90;;;9.20;99.90;;;;;;5063001;28;20250;-83
2021/05/12 06:18:58;;;;;;;1999.90;999.90;;;9.20;99.90;;;;;;5045316;28;20187;-82
2021/05/12 06:21:25;;;;;;;1999.90;999.90;;;9.30;99.90;;;;;;5062409;28;20248;-82
2021/05/12 06:23:51;;;;;;;1999.90;999.90;;;9.30;99.90;;;;;;5064666;28;20184;-82
2021/05/12 06:26:21;;;;;;;1999.90;999.90;;;9.40;99.90;;;;;;5063941;28;20177;-82
2021/05/12 06:28:48;;;;;;;1999.90;999.90;;;9.40;99.90;;;;;;5062865;28;20168;-81
2021/05/12 06:31:14;;;;;;;1999.90;999.90;;;9.30;99.90;;;;;;5061341;28;20203;-81
2021/05/12 06:33:43;;;;;;;1999.90;999.90;;;9.40;99.90;;;;;;5061310;28;20200;-82
2021/05/12 06:36:09;;;;;;;1999.90;999.90;;;9.30;99.90;;;;;;5061079;28;20178;-81
2021/05/12 06:38:35;;;;;;;1999.90;999.90;;;9.30;99.90;;;;;;5059611;28;20190;-82
2021/05/12 06:41:02;;;;;;;1999.90;999.90;;;9.30;99.90;;;;;;5053660;28;20192;-82
2021/05/12 06:43:28;;;;;;;1999.90;999.90;;;9.30;99.90;;;;;;5061133;28;20193;-82
2021/05/12 06:45:54;;;;;;;1999.90;999.90;;;9.40;99.90;;;;;;5062496;28;20192;-82
2021/05/12 06:48:20;;;;;;;1999.90;999.90;;;9.50;99.90;;;;;;5063403;28;20562;-82
2021/05/12 06:50:46;;;;;;;1999.90;999.90;;;9.40;99.90;;;;;;5060598;28;20209;-82
2021/05/12 06:53:12;;;;;;;1999.90;999.90;;;9.50;99.90;;;;;;5056677;28;20187;-82
2021/05/12 06:55:38;;;;;;;1999.90;999.90;;;9.60;99.90;;;;;;5038428;28;20185;-82
2021/05/12 06:58:06;;;;;;;1999.90;999.90;;;9.50;99.90;;;;;;5036821;28;20667;-79
2021/05/12 07:00:32;;;;;;;1999.90;999.90;;;9.60;99.90;;;;;;5035718;28;20223;-76
2021/05/12 07:02:57;;;;;;;1999.90;999.90;;;9.60;99.90;;;;;;5052219;28;20177;-76
2021/05/12 07:05:23;;;;;;;1999.90;999.90;;;9.60;99.90;;;;;;5051670;28;20255;-76
2021/05/12 07:07:49;;;;;;;1999.90;999.90;;;9.50;99.90;;;;;;5053291;28;20173;-76
2021/05/12 07:10:16;;;;;;;1999.90;999.90;;;9.50;99.90;;;;;;5053207;28;20202;-76
2021/05/12 07:12:42;;;;;;;1999.90;999.90;;;9.50;99.90;;;;;;5053213;28;20557;-77
2021/05/12 07:15:10;;;;;;;1999.90;999.90;;;9.60;99.90;;;;;;5053147;28;20217;-76
2021/05/12 07:17:35;;;;;;;1999.90;999.90;;;9.60;99.90;;;;;;5050766;28;20210;-77
2021/05/12 07:20:02;;;;;;;1999.90;999.90;;;9.50;99.90;;;;;;5051121;28;20204;-77
2021/05/12 07:22:27;;;;;;;1999.90;999.90;;;9.60;99.90;;;;;;5052522;28;20187;-76
2021/05/12 07:24:53;;;;;;;1999.90;999.90;;;9.60;99.90;;;;;;5052161;28;20180;-76
2021/05/12 07:27:22;;;;;;;1999.90;999.90;;;9.70;99.90;;;;;;5051243;28;20191;-76
2021/05/12 07:29:47;;;;;;;1999.90;999.90;;;9.70;99.90;;;;;;5051505;28;20220;-76
2021/05/12 07:32:13;;;;;;;1999.90;999.90;;;9.70;99.90;;;;;;5052940;28;20550;-76
2021/05/12 07:34:39;;;;;;;1999.90;999.90;;;9.70;99.90;;;;;;5040945;28;20181;-76
2021/05/12 07:37:06;;;;;;;1999.90;999.90;;;9.60;99.90;;;;;;5045494;28;20200;-76
2021/05/12 07:39:51;;;;;;;1999.90;999.90;;;9.70;99.90;;;;;;5045403;28;20216;-77
2021/05/12 07:42:18;;;;;;;1999.90;999.90;;;9.80;99.90;;;;;;5050285;28;20625;-76
2021/05/12 07:44:46;;;;;;;1999.90;999.90;;;9.90;99.90;;;;;;5046744;28;20185;-75
2021/05/12 07:47:11;;;;;;;1999.90;999.90;;;9.80;99.90;;;;;;5052784;28;20187;-76
2021/05/12 07:49:38;;;;;;;1999.90;999.90;;;9.90;99.90;;;;;;5051441;28;20217;-76
2021/05/12 07:52:05;;;;;;;1999.90;999.90;;;10.00;99.90;;;;;;5049013;28;20535;-76
2021/05/12 07:54:31;;;;;;;1999.90;999.90;;;10.00;99.90;;;;;;5051327;28;20173;-76
2021/05/12 07:56:57;;;;;;;1999.90;999.90;;;9.90;99.90;;;;;;5053737;28;20209;-77
2021/05/12 07:59:24;;;;;;;1999.90;999.90;;;9.90;99.90;;;;;;5051661;28;20306;-77
2021/05/12 08:01:50;;;;;;;1999.90;999.90;;;9.90;99.90;;;;;;5043791;28;20263;-76
2021/05/12 08:04:15;;;;;;;1999.90;999.90;;;9.90;99.90;;;;;;5024683;28;20261;-76
2021/05/12 08:06:41;;;;;;;1999.90;999.90;;;9.90;99.90;;;;;;5050352;28;20184;-74
2021/05/12 08:09:08;;;;;;;1999.90;999.90;;;10.10;99.90;;;;;;5051829;28;20227;-76
2021/05/12 08:11:34;;;;;;;1999.90;999.90;;;10.10;99.90;;;;;;5052940;28;20638;-77
2021/05/12 08:14:02;;;;;;;1999.90;999.90;;;10.20;99.90;;;;;;5038226;28;20181;-76
2021/05/12 08:16:27;;;;;;;1999.90;999.90;;;10.20;99.90;;;;;;5053774;28;20177;-76
2021/05/12 08:18:56;;;;;;;1999.90;999.90;;;10.10;99.90;;;;;;5054854;28;20251;-76
2021/05/12 08:21:22;;;;;;;1999.90;999.90;;;10.20;99.90;;;;;;5054570;28;20177;-76
2021/05/12 08:23:47;;;;;;;1999.90;999.90;;;10.20;99.90;;;;;;5055864;28;20527;-76
2021/05/12 08:26:13;;;;;;;1999.90;999.90;;;10.10;99.90;;;;;;5055552;28;20587;-76
2021/05/12 08:28:40;;;;;;;1999.90;999.90;;;10.10;99.90;;;;;;5055964;28;20729;-76
2021/05/12 08:31:06;;;;;;;1999.90;999.90;;;10.20;99.90;;;;;;5056092;28;20183;-76
2021/05/12 08:33:32;;;;;;;1999.90;999.90;;;10.10;99.90;;;;;;5055921;28;20263;-76
2021/05/12 08:35:58;;;;;;;1999.90;999.90;;;10.20;99.90;;;;;;5046301;28;20256;-77
2021/05/12 08:38:26;;;;;;;1999.90;999.90;;;10.20;99.90;;;;;;5053318;28;20678;-77
2021/05/12 08:40:54;;;;;;;1999.90;999.90;;;10.00;99.90;;;;;;5052474;28;20204;-76
2021/05/12 08:43:20;;;;;;;1999.90;999.90;;;10.10;99.90;;;;;;5034639;28;20196;-76
2021/05/12 08:45:46;;;;;;;1999.90;999.90;;;10.10;99.90;;;;;;5055692;28;20648;-76
2021/05/12 08:48:17;;;;;;;1999.90;999.90;;;10.20;99.90;;;;;;5055594;28;20247;-77
2021/05/12 08:50:44;;;;;;;1999.90;999.90;;;10.30;99.90;;;;;;5054413;28;20683;-76
2021/05/12 08:53:10;;;;;;;1999.90;999.90;;;10.50;99.90;;;;;;5054686;28;20179;-76
2021/05/12 08:55:36;;;;;;;1999.90;999.90;;;10.60;99.90;;;;;;5037208;28;20181;-77
2021/05/12 08:58:03;;;;;;;1999.90;999.90;;;10.60;99.90;;;;;;5055409;28;20565;-76
2021/05/12 09:00:29;;;;;;;1999.90;999.90;;;10.60;99.90;;;;;;5054424;28;20243;-76
2021/05/12 09:02:57;;;;;;;1999.90;999.90;;;10.70;99.90;;;;;;5055584;28;20180;-76
2021/05/12 09:05:24;;;;;;;1999.90;999.90;;;10.80;99.90;;;;;;5055428;28;20201;-77
2021/05/12 09:07:50;;;;;;;1999.90;999.90;;;10.90;99.90;;;;;;5038358;28;20181;-77
2021/05/12 09:10:16;;;;;;;1999.90;999.90;;;10.90;99.90;;;;;;5055106;28;20204;-76
2021/05/12 09:12:49;;;;;;;1999.90;999.90;;;10.90;99.90;;;;;;5056403;28;20318;-76
2021/05/12 09:15:18;;;;;;;1999.90;999.90;;;11.00;99.90;;;;;;5055318;28;20173;-76
2021/05/12 09:17:45;;;;;;;1999.90;999.90;;;11.10;99.90;;;;;;5057597;28;20638;-75
2021/05/12 09:20:20;;;;;;;1999.90;999.90;;;11.00;99.90;;;;;;5054074;28;20680;-74
2021/05/12 09:23:04;;;;;;;1999.90;999.90;;;11.10;99.90;;;;;;5048714;28;20262;-77
2021/05/12 09:25:32;;;;;;;1999.90;999.90;;;11.10;99.90;;;;;;5055187;28;20264;-76
2021/05/12 09:28:14;;;;;;;1999.90;999.90;;;11.10;99.90;;;;;;5061146;28;20192;-84
2021/05/12 09:31:02;;;;;;;1999.90;999.90;;;11.10;99.90;;;;;;5052261;28;20218;-85
2021/05/12 09:33:30;;;;;;;1999.90;999.90;;;11.00;99.90;;;;;;5060395;28;20187;-84
2021/05/12 09:35:57;;;;;;;1999.90;999.90;;;11.00;99.90;;;;;;5043669;28;20185;-84
2021/05/12 09:38:29;;;;;;;1999.90;999.90;;;11.00;99.90;;;;;;5057077;28;20611;-85
2021/05/12 09:41:14;;;;;;;1999.90;999.90;;;10.90;99.90;;;;;;5052521;28;20268;-83
2021/05/12 09:43:50;;;;;;;1999.90;999.90;;;10.80;99.90;;;;;;5058706;28;20260;-83
2021/05/12 09:46:39;;;;;;;1999.90;999.90;;;10.70;99.90;;;;;;5060884;28;20623;-84
2021/05/12 09:49:13;;;;;;;1999.90;999.90;;;10.70;99.90;;;;;;5047907;28;20205;-83
2021/05/12 09:51:42;;;;;;;1999.90;999.90;;;10.70;99.90;;;;;;5059633;28;20212;-84
2021/05/12 09:54:19;;;;;;;1999.90;999.90;;;10.60;99.90;;;;;;5050093;28;20177;-84
2021/05/12 09:56:56;;;;;;;1999.90;999.90;;;10.70;99.90;;;;;;5058009;28;20218;-84
2021/05/12 09:59:25;;;;;;;1999.90;999.90;;;10.70;99.90;;;;;;5063557;23;20709;-80
2021/05/12 10:01:59;;;;;;;1999.90;999.90;;;10.90;99.90;;;;;;5079106;28;20275;-81
2021/05/12 10:04:42;;;;;;;1999.90;999.90;;;10.80;99.90;;;;;;5079332;28;20175;-80
2021/05/12 10:07:21;;;;;;;1999.90;999.90;;;10.80;99.90;;;;;;5079337;28;20575;-78
2021/05/12 10:09:50;;;;;;;1999.90;999.90;;;10.90;99.90;;;;;;5078264;28;20196;-77
2021/05/12 10:12:26;;;;;;;1999.90;999.90;;;11.00;99.90;;;;;;5062091;28;20169;-78
2021/05/12 10:14:57;;;;;;;1999.90;999.90;;;11.10;99.90;;;;;;5061552;28;20176;-78
2021/05/12 10:17:25;;;;;;;1999.90;999.90;;;11.30;99.90;;;;;;5055939;28;20193;-78
2021/05/12 10:19:51;;;;;;;1999.90;999.90;;;11.20;99.90;;;;;;5063732;28;20201;-79
2021/05/12 10:22:18;;;;;;;1999.90;999.90;;;11.20;99.90;;;;;;5070499;28;20538;-78
2021/05/12 10:24:46;;;;;;;1999.90;999.90;;;11.40;99.90;;;;;;5061647;28;20231;-78
2021/05/12 10:27:15;;;;;;;1999.90;999.90;;;11.40;99.90;;;;;;5062903;28;20184;-77
2021/05/12 10:29:47;;;;;;;1999.90;999.90;;;11.20;99.90;;;;;;5063612;28;20228;-79
2021/05/12 10:32:25;;;;;;;1999.90;999.90;;;11.10;99.90;;;;;;5064676;28;20172;-77
2021/05/12 10:35:03;;;;;;;1999.90;999.90;;;11.00;99.90;;;;;;5064759;28;20194;-78
2021/05/12 10:37:31;;;;;;;1999.90;999.90;;;11.00;99.90;;;;;;5065955;28;20561;-77
2021/05/12 10:40:05;;;;;;;1999.90;999.90;;;11.10;99.90;;;;;;5060900;28;20223;-76
2021/05/12 10:43:06;;;;;;;1999.90;999.90;;;11.20;99.90;;;;;;5072955;28;20553;-78
2021/05/12 10:48:31;;;;;;;1999.90;999.90;;;11.20;99.90;;;;;;5063003;28;20181;-78
2021/05/12 10:50:59;;;;;;;1999.90;999.90;;;11.30;99.90;;;;;;5059607;28;20273;-78
2021/05/12 10:53:33;;;;;;;1999.90;999.90;;;11.40;99.90;;;;;;5069562;28;20670;-77
2021/05/12 10:56:00;;;;;;;1999.90;999.90;;;11.30;99.90;;;;;;5069858;28;20676;-77
2021/05/12 10:58:31;;;;;;;1999.90;999.90;;;11.30;99.90;;;;;;5072226;28;20231;-76
2021/05/12 11:01:04;;;;;;;1999.90;999.90;;;11.30;99.90;;;;;;5072301;28;20228;-78
2021/05/12 11:03:49;;;;;;;1999.90;999.90;;;11.40;99.90;;;;;;5072835;28;20225;-79
2021/05/12 11:06:16;;;;;;;1999.90;999.90;;;11.40;99.90;;;;;;5075115;28;20169;-81
2021/05/12 11:09:09;;;;;;;1999.90;999.90;;;11.40;99.90;;;;;;5075224;28;20226;-78
2021/05/12 11:11:40;;;;;;;1999.90;999.90;;;11.50;99.90;;;;;;5078770;28;20193;-78
2021/05/12 11:14:32;;;;;;;1999.90;999.90;;;11.50;99.90;;;;;;5076416;28;20183;-81
2021/05/12 11:17:08;;;;;;;1999.90;999.90;;;11.60;99.90;;;;;;5074660;28;20263;-81
2021/05/12 11:22:41;;;;;;;1999.90;999.90;;;11.50;99.90;;;;;;1445300;26;20277;-80
2021/05/12 11:33:30;;;;;;;1999.90;999.90;;;11.50;99.90;;;;;;5080566;28;20673;-81
2021/05/12 11:36:21;;;;;;;1999.90;999.90;;;11.60;99.90;;;;;;5081606;28;20210;-82
2021/05/12 11:38:50;;;;;;;1999.90;999.90;;;11.60;99.90;;;;;;5080307;28;20200;-74
2021/05/12 11:41:17;;;;;;;1999.90;999.90;;;11.70;99.90;;;;;;5071546;28;20196;-76
2021/05/12 11:44:01;;;;;;;1999.90;999.90;;;11.80;99.90;;;;;;5073153;28;20184;-77
2021/05/12 11:46:41;;;;;;;1999.90;999.90;;;11.80;99.90;;;;;;5073592;28;20165;-78
2021/05/12 11:49:11;;;;;;;1999.90;999.90;;;11.80;99.90;;;;;;5071801;28;20267;-75
2021/05/12 11:51:47;;;;;;;1999.90;999.90;;;11.90;99.90;;;;;;5073445;28;20674;-74
2021/05/12 11:54:17;;;;;;;1999.90;999.90;;;11.90;99.90;;;;;;5063357;28;20180;-76
2021/05/12 11:56:54;;;;;;;1999.90;999.90;;;12.00;99.90;;;;;;5074365;28;20221;-80
2021/05/12 11:59:23;;;;;;;1999.90;999.90;;;12.10;99.90;;;;;;5060081;28;20180;-78
2021/05/12 12:02:00;;;;;;;1999.90;999.90;;;12.10;99.90;;;;;;5060899;28;20174;-78
2021/05/12 12:06:51;;;;;;;1999.90;999.90;;;12.20;99.90;;;;;;5065123;28;20181;-78
2021/05/12 12:09:18;;;;;;;1999.90;999.90;;;12.30;99.90;;;;;;5061863;28;20181;-78
2021/05/12 12:11:44;;;;;;;1999.90;999.90;;;12.30;99.90;;;;;;5068024;28;20525;-77
2021/05/12 12:14:12;;;;;;;1999.90;999.90;;;12.30;99.90;;;;;;5063452;28;20310;-77
2021/05/12 12:16:40;;;;;;;1999.90;999.90;;;12.20;99.90;;;;;;5068619;28;20173;-78
2021/05/12 12:19:18;;;;;;;1999.90;999.90;;;12.30;99.90;;;;;;5066437;28;20515;-78
2021/05/12 12:21:45;;;;;;;1999.90;999.90;;;12.20;99.90;;;;;;5067845;28;20177;-82
2021/05/12 12:24:30;;;;;;;1999.90;999.90;;;12.30;99.90;;;;;;5075114;28;20177;-82